Terminal Aerodrome Forecast
Issued by NWS

Home | Current Version | Previous Version | Text Only | Print | Product List | Glossary On
Versions: 1 2 3 4 5 6 7 8 9 10 11 12 13 14 15 16 17 18 19 20 21 22 23 24 25 26 27 28 29 30 31 32 33 34 35 36 37 38 39 40 41 42 43 44 45 46
994
FTUS42 KMFL 171420 AAA
TAFFXE
TAF AMD
KFXE 171420Z 1714/1812 32006KT P6SM FEW020 FEW250
     FM171800 02010KT P6SM SCT035
     FM180300 04006KT P6SM FEW030
     FM180600 04008KT P6SM SCT025 SCT250=

USA.gov is the U.S. government's official web portal to all federal, state and local government web resources and services.